Alexander S Mccall — V7YW9 — position and weather

sailwx.info

Track history (hours):
 
Tides and Currents Weather Stations Pressure Air Temp Water Temp Dewpoint Dewpoint Depression Visibility Wind Speed Wind Dir Waves Ship Positions

Alexander S Mccall

Last reported at 2017-Nov-19 06:34 UTC. Time now 2017-Nov-22 02:06 UTC.
Position N 35°54' E 014°31'.

Length 55 m; draft 2.1 m.

Type: Passenger vessel. MMSI: 538007647.

Date/timePositionNaut miles runAvg speedWind from/ knotsBaromVisibWave heightAir tempDewpointWater temp
2017-Nov-19 06:34N 35°54' E 014°31'0 6.3
2017-Nov-19 06:30N 35°54' E 014°32'2 4.9
2017-Nov-19 06:00N 35°57' E 014°33'3 5.4
2017-Nov-19 05:30N 35°59' E 014°31'3 5.4
2017-Nov-19 05:00N 36°01' E 014°29'3 5.4
2017-Nov-19 04:30N 36°03' E 014°28'2 4.6
2017-Nov-19 04:00N 36°05' E 014°26'2 4.9
2017-Nov-19 03:30N 36°06' E 014°23'2 4.8
2017-Nov-19 03:00N 36°07' E 014°20'2 4.7
2017-Nov-19 02:30N 36°09' E 014°18'2 4.6
2017-Nov-19 02:00N 36°10' E 014°16'2 4.6
2017-Nov-19 01:30N 36°11' E 014°13'2 4.7
2017-Nov-19 01:00N 36°13' E 014°11'2 4.7
2017-Nov-19 00:30N 36°14' E 014°08'2 4.8
2017-Nov-19 00:00N 36°15' E 014°06'2 4.8
2017-Nov-18 23:30N 36°16' E 014°03'2 5.0
2017-Nov-18 23:00N 36°18' E 014°01'2 4.9
2017-Nov-18 22:30N 36°19' E 013°58'2 4.8
2017-Nov-18 22:00N 36°20' E 013°55'3 5.4
2017-Nov-18 21:29N 36°21' E 013°52'3 5.3
2017-Nov-18 21:00N 36°22' E 013°49'  
2017-Nov-14 16:03N 36°00' W 005°15'113.8
2017-Nov-14 16:00N 36°00' W 005°16'  
2017-Nov-12 04:37N 30°12' W 013°52'1 9.1
2017-Nov-12 04:29N 30°11' W 013°53'100 9.3
2017-Nov-11 17:44N 28°44' W 014°48'4 9.3
2017-Nov-11 17:19N 28°41' W 014°50'15 9.2
2017-Nov-11 15:41N 28°28' W 014°60'2 9.2
2017-Nov-11 15:30N 28°27' W 015°01'5 9.2
2017-Nov-11 15:00N 28°24' W 015°05'4 9.2
2017-Nov-11 14:30N 28°20' W 015°08'5 9.1
2017-Nov-11 14:00N 28°17' W 015°11'5 9.1
2017-Nov-11 13:30N 28°13' W 015°15'5 9.1
2017-Nov-11 13:00N 28°10' W 015°18'5 9.0
2017-Nov-11 12:30N 28°07' W 015°22'3 4.8
2017-Nov-11 11:57N 28°08' W 015°25'0 0.0
2017-Nov-11 11:27N 28°08' W 015°25'0 0.0
2017-Nov-11 10:57N 28°08' W 015°25'0 0.0
2017-Nov-11 10:27N 28°08' W 015°25'0 0.0
2017-Nov-11 09:57N 28°08' W 015°25'0 0.0
2017-Nov-11 09:27N 28°08' W 015°25'0 0.0
2017-Nov-11 09:00N 28°08' W 015°25'0 0.0
2017-Nov-11 08:30N 28°08' W 015°25'0 0.0
2017-Nov-11 07:57N 28°08' W 015°25'0 0.0
2017-Nov-11 07:30N 28°08' W 015°25'0 0.0
2017-Nov-11 07:00N 28°08' W 015°25'0 0.0
2017-Nov-11 06:27N 28°08' W 015°25'0 0.0
2017-Nov-11 06:00N 28°08' W 015°25'0 0.0
2017-Nov-11 05:30N 28°08' W 015°25'0 0.0
2017-Nov-11 05:00N 28°08' W 015°25'0 0.0
2017-Nov-11 04:30N 28°08' W 015°25'0 0.0
2017-Nov-11 04:00N 28°08' W 015°25'0 0.0
2017-Nov-11 03:30N 28°08' W 015°25'0 0.0
2017-Nov-11 03:00N 28°08' W 015°25'0 0.0
2017-Nov-11 02:30N 28°08' W 015°25'0 0.0
2017-Nov-11 02:00N 28°08' W 015°25'0 0.0
2017-Nov-11 01:21N 28°08' W 015°25'0 0.0
2017-Nov-11 00:54N 28°08' W 015°25'0 0.0
2017-Nov-11 00:21N 28°08' W 015°25'0 0.0
2017-Nov-10 23:54N 28°08' W 015°25'0 0.0
2017-Nov-10 23:24N 28°08' W 015°25'0 0.0
2017-Nov-10 22:54N 28°08' W 015°25'0 0.0
2017-Nov-10 22:24N 28°08' W 015°25'0 0.0
2017-Nov-10 21:57N 28°08' W 015°25'0 0.0
2017-Nov-10 21:24N 28°08' W 015°25'0 0.0
2017-Nov-10 20:57N 28°08' W 015°25'0 0.0
2017-Nov-10 20:27N 28°08' W 015°25'0 0.0
2017-Nov-10 19:57N 28°08' W 015°25'0 0.0
2017-Nov-10 19:27N 28°08' W 015°25'0 0.0
2017-Nov-10 18:57N 28°08' W 015°25'0 0.0
2017-Nov-10 18:30N 28°08' W 015°25'0 0.0
2017-Nov-10 18:00N 28°08' W 015°25'0 0.0
2017-Nov-10 17:27N 28°08' W 015°25'0 0.0
2017-Nov-10 17:00N 28°08' W 015°25'0 0.0
2017-Nov-10 16:30N 28°08' W 015°25'0 0.0
2017-Nov-10 16:00N 28°08' W 015°25'0 0.0
2017-Nov-10 15:27N 28°08' W 015°25'0 0.0
2017-Nov-10 15:00N 28°08' W 015°25'0 0.0
2017-Nov-10 14:30N 28°08' W 015°25'0 0.0
2017-Nov-10 14:00N 28°08' W 015°25'0 0.0
2017-Nov-10 13:18N 28°08' W 015°25'0 0.0
2017-Nov-10 13:00N 28°08' W 015°25'0 0.0
2017-Nov-10 12:30N 28°08' W 015°25'0 0.0
2017-Nov-10 11:51N 28°08' W 015°25'0 0.0
2017-Nov-10 11:30N 28°08' W 015°25'0 0.0
2017-Nov-10 11:00N 28°08' W 015°25'0 0.0
2017-Nov-10 10:21N 28°08' W 015°25'0 0.0
2017-Nov-10 10:00N 28°08' W 015°25'0 0.0
2017-Nov-10 09:21N 28°08' W 015°25'0 0.0
2017-Nov-10 08:54N 28°08' W 015°25'0 0.0
2017-Nov-10 08:24N 28°08' W 015°25'0 0.0
2017-Nov-10 07:51N 28°08' W 015°25'0 0.0
2017-Nov-10 07:24N 28°08' W 015°25'0 0.0
2017-Nov-10 06:54N 28°08' W 015°25'0 0.0
2017-Nov-10 06:24N 28°08' W 015°25'0 0.0
2017-Nov-10 05:54N 28°08' W 015°25'0 0.0
2017-Nov-10 05:24N 28°08' W 015°25'0 0.0
2017-Nov-10 04:42N 28°08' W 015°25'0 0.0
2017-Nov-10 04:27N 28°08' W 015°25'0 0.0
2017-Nov-10 03:57N 28°08' W 015°25'0 0.0
2017-Nov-10 03:30N 28°08' W 015°25'0 0.0
2017-Nov-10 03:00N 28°08' W 015°25'0 0.0
2017-Nov-10 02:30N 28°08' W 015°25'0 0.0
2017-Nov-10 02:00N 28°08' W 015°25'0 0.0
2017-Nov-10 01:30N 28°08' W 015°25'0 0.0
2017-Nov-10 01:00N 28°08' W 015°25'0 0.0
2017-Nov-10 00:30N 28°08' W 015°25'0 0.0
2017-Nov-10 00:00N 28°08' W 015°25'0 0.0
2017-Nov-09 23:27N 28°08' W 015°25'0 0.0
2017-Nov-09 23:00N 28°08' W 015°25'0 0.0
2017-Nov-09 22:30N 28°08' W 015°25'0 0.0
2017-Nov-09 22:00N 28°08' W 015°25'0 0.0
2017-Nov-09 21:30N 28°08' W 015°25'0 0.0
2017-Nov-09 21:00N 28°08' W 015°25'0 0.0
2017-Nov-09 20:30N 28°08' W 015°25'0 0.0
2017-Nov-09 20:00N 28°08' W 015°25'0 0.0
2017-Nov-09 19:21N 28°08' W 015°25'0 0.0
2017-Nov-09 18:51N 28°08' W 015°25'0 0.0
2017-Nov-09 18:21N 28°08' W 015°25'0 0.0
2017-Nov-09 17:39N 28°08' W 015°25'0 0.0
2017-Nov-09 17:18N 28°08' W 015°25'0 0.0
2017-Nov-09 16:54N 28°08' W 015°25'0 0.0
2017-Nov-09 16:24N 28°08' W 015°25'0 0.0
2017-Nov-09 15:54N 28°08' W 015°25'0 0.0
2017-Nov-09 15:24N 28°08' W 015°25'0 0.0
2017-Nov-09 14:54N 28°08' W 015°25'0 0.0
2017-Nov-09 14:24N 28°08' W 015°25'0 0.0
2017-Nov-09 13:57N 28°08' W 015°25'0 0.0
2017-Nov-09 13:27N 28°08' W 015°25'0 0.0
2017-Nov-09 12:57N 28°08' W 015°25'0 0.0
2017-Nov-09 12:27N 28°08' W 015°25'0 0.0
2017-Nov-09 11:57N 28°08' W 015°25'0 0.0
2017-Nov-09 11:30N 28°08' W 015°25'0 0.0
2017-Nov-09 11:00N 28°08' W 015°25'0 0.0
2017-Nov-09 10:30N 28°08' W 015°25'0 0.0
2017-Nov-09 10:00N 28°08' W 015°25'0 0.0
2017-Nov-09 09:30N 28°08' W 015°25'0 0.0
2017-Nov-09 09:00N 28°08' W 015°25'0 0.0
2017-Nov-09 08:30N 28°08' W 015°25'0 0.0
2017-Nov-09 08:00N 28°08' W 015°25'0 0.0
2017-Nov-09 07:30N 28°08' W 015°25'0 0.0
2017-Nov-09 07:00N 28°08' W 015°25'  
Track history (hours):
 
Tides and Currents Weather Stations Pressure Air Temp Water Temp Dewpoint Dewpoint Depression Visibility Wind Speed Wind Dir Waves Ship Positions

Alexander S Mccall

Last reported at 2017-Nov-19 06:34 UTC. Time now 2017-Nov-22 02:06 UTC.
Position N 35°54' E 014°31'.

Length 55 m; draft 2.1 m.

Type: Passenger vessel. MMSI: 538007647.

Date/timePositionNaut miles runAvg speedWind from/ knotsBaromVisibWave heightAir tempDewpointWater temp
2017-Nov-19 06:34N 35°54' E 014°31'0 6.3
2017-Nov-19 06:30N 35°54' E 014°32'2 4.9
2017-Nov-19 06:00N 35°57' E 014°33'3 5.4
2017-Nov-19 05:30N 35°59' E 014°31'3 5.4
2017-Nov-19 05:00N 36°01' E 014°29'3 5.4
2017-Nov-19 04:30N 36°03' E 014°28'2 4.6
2017-Nov-19 04:00N 36°05' E 014°26'2 4.9
2017-Nov-19 03:30N 36°06' E 014°23'2 4.8
2017-Nov-19 03:00N 36°07' E 014°20'2 4.7
2017-Nov-19 02:30N 36°09' E 014°18'2 4.6
2017-Nov-19 02:00N 36°10' E 014°16'2 4.6
2017-Nov-19 01:30N 36°11' E 014°13'2 4.7
2017-Nov-19 01:00N 36°13' E 014°11'2 4.7
2017-Nov-19 00:30N 36°14' E 014°08'2 4.8
2017-Nov-19 00:00N 36°15' E 014°06'2 4.8
2017-Nov-18 23:30N 36°16' E 014°03'2 5.0
2017-Nov-18 23:00N 36°18' E 014°01'2 4.9
2017-Nov-18 22:30N 36°19' E 013°58'2 4.8
2017-Nov-18 22:00N 36°20' E 013°55'3 5.4
2017-Nov-18 21:29N 36°21' E 013°52'3 5.3
2017-Nov-18 21:00N 36°22' E 013°49'  
2017-Nov-14 16:03N 36°00' W 005°15'113.8
2017-Nov-14 16:00N 36°00' W 005°16'  
2017-Nov-12 04:37N 30°12' W 013°52'1 9.1
2017-Nov-12 04:29N 30°11' W 013°53'100 9.3
2017-Nov-11 17:44N 28°44' W 014°48'4 9.3
2017-Nov-11 17:19N 28°41' W 014°50'15 9.2
2017-Nov-11 15:41N 28°28' W 014°60'2 9.2
2017-Nov-11 15:30N 28°27' W 015°01'5 9.2
2017-Nov-11 15:00N 28°24' W 015°05'4 9.2
2017-Nov-11 14:30N 28°20' W 015°08'5 9.1
2017-Nov-11 14:00N 28°17' W 015°11'5 9.1
2017-Nov-11 13:30N 28°13' W 015°15'5 9.1
2017-Nov-11 13:00N 28°10' W 015°18'5 9.0
2017-Nov-11 12:30N 28°07' W 015°22'3 4.8
2017-Nov-11 11:57N 28°08' W 015°25'0 0.0
2017-Nov-11 11:27N 28°08' W 015°25'0 0.0
2017-Nov-11 10:57N 28°08' W 015°25'0 0.0
2017-Nov-11 10:27N 28°08' W 015°25'0 0.0
2017-Nov-11 09:57N 28°08' W 015°25'0 0.0
2017-Nov-11 09:27N 28°08' W 015°25'0 0.0
2017-Nov-11 09:00N 28°08' W 015°25'0 0.0
2017-Nov-11 08:30N 28°08' W 015°25'0 0.0
2017-Nov-11 07:57N 28°08' W 015°25'0 0.0
2017-Nov-11 07:30N 28°08' W 015°25'0 0.0
2017-Nov-11 07:00N 28°08' W 015°25'0 0.0
2017-Nov-11 06:27N 28°08' W 015°25'0 0.0
2017-Nov-11 06:00N 28°08' W 015°25'0 0.0
2017-Nov-11 05:30N 28°08' W 015°25'0 0.0
2017-Nov-11 05:00N 28°08' W 015°25'0 0.0
2017-Nov-11 04:30N 28°08' W 015°25'0 0.0
2017-Nov-11 04:00N 28°08' W 015°25'0 0.0
2017-Nov-11 03:30N 28°08' W 015°25'0 0.0
2017-Nov-11 03:00N 28°08' W 015°25'0 0.0
2017-Nov-11 02:30N 28°08' W 015°25'0 0.0
2017-Nov-11 02:00N 28°08' W 015°25'0 0.0
2017-Nov-11 01:21N 28°08' W 015°25'0 0.0
2017-Nov-11 00:54N 28°08' W 015°25'0 0.0
2017-Nov-11 00:21N 28°08' W 015°25'0 0.0
2017-Nov-10 23:54N 28°08' W 015°25'0 0.0
2017-Nov-10 23:24N 28°08' W 015°25'0 0.0
2017-Nov-10 22:54N 28°08' W 015°25'0 0.0
2017-Nov-10 22:24N 28°08' W 015°25'0 0.0
2017-Nov-10 21:57N 28°08' W 015°25'0 0.0
2017-Nov-10 21:24N 28°08' W 015°25'0 0.0
2017-Nov-10 20:57N 28°08' W 015°25'0 0.0
2017-Nov-10 20:27N 28°08' W 015°25'0 0.0
2017-Nov-10 19:57N 28°08' W 015°25'0 0.0
2017-Nov-10 19:27N 28°08' W 015°25'0 0.0
2017-Nov-10 18:57N 28°08' W 015°25'0 0.0
2017-Nov-10 18:30N 28°08' W 015°25'0 0.0
2017-Nov-10 18:00N 28°08' W 015°25'0 0.0
2017-Nov-10 17:27N 28°08' W 015°25'0 0.0
2017-Nov-10 17:00N 28°08' W 015°25'0 0.0
2017-Nov-10 16:30N 28°08' W 015°25'0 0.0
2017-Nov-10 16:00N 28°08' W 015°25'0 0.0
2017-Nov-10 15:27N 28°08' W 015°25'0 0.0
2017-Nov-10 15:00N 28°08' W 015°25'0 0.0
2017-Nov-10 14:30N 28°08' W 015°25'0 0.0
2017-Nov-10 14:00N 28°08' W 015°25'0 0.0
2017-Nov-10 13:18N 28°08' W 015°25'0 0.0
2017-Nov-10 13:00N 28°08' W 015°25'0 0.0
2017-Nov-10 12:30N 28°08' W 015°25'0 0.0
2017-Nov-10 11:51N 28°08' W 015°25'0 0.0
2017-Nov-10 11:30N 28°08' W 015°25'0 0.0
2017-Nov-10 11:00N 28°08' W 015°25'0 0.0
2017-Nov-10 10:21N 28°08' W 015°25'0 0.0
2017-Nov-10 10:00N 28°08' W 015°25'0 0.0
2017-Nov-10 09:21N 28°08' W 015°25'0 0.0
2017-Nov-10 08:54N 28°08' W 015°25'0 0.0
2017-Nov-10 08:24N 28°08' W 015°25'0 0.0
2017-Nov-10 07:51N 28°08' W 015°25'0 0.0
2017-Nov-10 07:24N 28°08' W 015°25'0 0.0
2017-Nov-10 06:54N 28°08' W 015°25'0 0.0
2017-Nov-10 06:24N 28°08' W 015°25'0 0.0
2017-Nov-10 05:54N 28°08' W 015°25'0 0.0
2017-Nov-10 05:24N 28°08' W 015°25'0 0.0
2017-Nov-10 04:42N 28°08' W 015°25'0 0.0
2017-Nov-10 04:27N 28°08' W 015°25'0 0.0
2017-Nov-10 03:57N 28°08' W 015°25'0 0.0
2017-Nov-10 03:30N 28°08' W 015°25'0 0.0
2017-Nov-10 03:00N 28°08' W 015°25'0 0.0
2017-Nov-10 02:30N 28°08' W 015°25'0 0.0
2017-Nov-10 02:00N 28°08' W 015°25'0 0.0
2017-Nov-10 01:30N 28°08' W 015°25'0 0.0
2017-Nov-10 01:00N 28°08' W 015°25'0 0.0
2017-Nov-10 00:30N 28°08' W 015°25'0 0.0
2017-Nov-10 00:00N 28°08' W 015°25'0 0.0
2017-Nov-09 23:27N 28°08' W 015°25'0 0.0
2017-Nov-09 23:00N 28°08' W 015°25'0 0.0
2017-Nov-09 22:30N 28°08' W 015°25'0 0.0
2017-Nov-09 22:00N 28°08' W 015°25'0 0.0
2017-Nov-09 21:30N 28°08' W 015°25'0 0.0
2017-Nov-09 21:00N 28°08' W 015°25'0 0.0
2017-Nov-09 20:30N 28°08' W 015°25'0 0.0
2017-Nov-09 20:00N 28°08' W 015°25'0 0.0
2017-Nov-09 19:21N 28°08' W 015°25'0 0.0
2017-Nov-09 18:51N 28°08' W 015°25'0 0.0
2017-Nov-09 18:21N 28°08' W 015°25'0 0.0
2017-Nov-09 17:39N 28°08' W 015°25'0 0.0
2017-Nov-09 17:18N 28°08' W 015°25'0 0.0
2017-Nov-09 16:54N 28°08' W 015°25'0 0.0
2017-Nov-09 16:24N 28°08' W 015°25'0 0.0
2017-Nov-09 15:54N 28°08' W 015°25'0 0.0
2017-Nov-09 15:24N 28°08' W 015°25'0 0.0
2017-Nov-09 14:54N 28°08' W 015°25'0 0.0
2017-Nov-09 14:24N 28°08' W 015°25'0 0.0
2017-Nov-09 13:57N 28°08' W 015°25'0 0.0
2017-Nov-09 13:27N 28°08' W 015°25'0 0.0
2017-Nov-09 12:57N 28°08' W 015°25'0 0.0
2017-Nov-09 12:27N 28°08' W 015°25'0 0.0
2017-Nov-09 11:57N 28°08' W 015°25'0 0.0
2017-Nov-09 11:30N 28°08' W 015°25'0 0.0
2017-Nov-09 11:00N 28°08' W 015°25'0 0.0
2017-Nov-09 10:30N 28°08' W 015°25'0 0.0
2017-Nov-09 10:00N 28°08' W 015°25'0 0.0
2017-Nov-09 09:30N 28°08' W 015°25'0 0.0
2017-Nov-09 09:00N 28°08' W 015°25'0 0.0
2017-Nov-09 08:30N 28°08' W 015°25'0 0.0
2017-Nov-09 08:00N 28°08' W 015°25'0 0.0
2017-Nov-09 07:30N 28°08' W 015°25'0 0.0
2017-Nov-09 07:00N 28°08' W 015°25'  

Dump ship's entire track history